Jacksonville, OR (97530)

11:28 AM PST on December 28, 2014 (GMT -0800)
RAWS MEDFORD PORT #2 OR US | Change Station
CLOSE
Current Station
Personal Weather Station
Location: Jacksonville, OR
Elevation: 1857 ft
Nearby Weather Stations

Elev 1857 ft 42.15 °N, 123.06 °W | Updated 201 days ago

Rain
Rain
42 °F
Feels Like 42 °F
N
2
Wind Variable Wind from SSE
Gusts 8 mph

Today
High -- | Low -- °F
--% Chance of Precip.
Yesterday
High -- | Low -- °F
Precip. -- in
7:40 AM 4:47 PM
Waxing Crescent, 50% visible
Pressure 30.37 in
Visibility 6.0 miles
Clouds Mostly Cloudy 700 ft
Overcast 4500 ft
Dew Point 32 °F
Humidity 65%
Rainfall 0.00 in
Snow Depth Not available.
UV 1 out of 12
Pollen 2.60 out of 12
Air Quality Not available.
Flu Activity Not available.
METAR KMFR 281853Z 00000KT 6SM -RA BR BKN007 OVC045 06/04 A3035 RMK AO2 RAB10 SLP282 P0000 T00560039

More Conditions Fewer Conditions

Pressure 30.37 in
Visibility 6.0 miles
Clouds Mostly Cloudy 700 ft
Overcast 4500 ft
Dew Point 32 °F
Humidity 65%
Rainfall 0.00 in
Snow Depth Not available.
UV 1 out of 12
Pollen 2.60 out of 12
Air Quality Not available.
Flu Activity Not available.
METAR KMFR 281853Z 00000KT 6SM -RA BR BKN007 OVC045 06/04 A3035 RMK AO2 RAB10 SLP282 P0000 T00560039

More Conditions Fewer Conditions

10-Day Weather Forecast

Almanac

Astronomy

Dec. 28, 2014 Rise Set
Actual Time
Civil Twilight
Nautical Twilight
Astronomical Twilight
Moon
Length of Visible Light
Length of Day
Tomorrow will be .
, % of the Moon is Illuminated

Today's Extremes

State Highs State Lows

Community

WunderPhotos

Upload Photos

1,781,400 photos uploaded!

WunderBlogs® & News

Nearby

Air Quality

  Air Quality AQ Index Pollutant
Not available.

Snow Depth

Station Depth Elevation

Earthquake Activity

City Distance Mag. Time & Date
Minimum magnitude displayed is 2.5.

Coastal Water Temperatures

Place Temperature

Nearby Weather Stations